Flight Track Log - Related Links

Times and Time Zones

All times are in EDT time to prevent confusion due to time zone crossing. See the SKW5646 flight status page for this flight to view local times or setup timezone preferences in your user account.

Time Position Orientation Groundspeed Altitude Reporting Facility
EDT Latitude Longitude Course Direction KTS MPH feet Rate Location/Type
Thu 03:51:35 PM 34.4192 -119.9747 263° West 199 229 3,900  Level Los Angeles Center
Thu 03:52:37 PM 34.4197 -120.0439 271° West 201 231 5,700 1,694 Climbing Los Angeles Center
Thu 03:53:00 PM 34.5743 -120.1410 321° Northwest  Level FlightAware Approximate
Thu 03:53:39 PM 34.4261 -120.1103 277° West 204 235 7,400  Level Los Angeles Center
Thu 03:54:00 PM 34.6364 -120.1939 328° Northwest  Level FlightAware Approximate
Thu 03:54:41 PM 34.4603 -120.1450 320° Northwest 203 234 8,800  Level Los Angeles Center
Thu 03:55:00 PM 34.6995 -120.2453 324° Northwest  Level FlightAware Approximate
Thu 03:55:43 PM 34.5258 -120.1936 329° Northwest 199 229 11,100  Level Los Angeles Center
Thu 03:56:45 PM 34.5753 -120.2308 328° Northwest 206 237 12,400 1,258 Climbing Los Angeles Center
Thu 03:57:47 PM 34.6217 -120.2656 328° Northwest 213 245 13,700 1,355 Climbing Los Angeles Center
Thu 03:58:49 PM 34.6806 -120.3125 327° Northwest 213 245 15,200 1,266 Climbing Los Angeles Center
Thu 03:59:55 PM 34.7306 -120.3519 327° Northwest 215 247 16,400 1,161 Climbing Los Angeles Center
Thu 04:00:53 PM 34.7817 -120.3908 328° Northwest 218 251 17,600 1,050 Climbing Los Angeles Center
Thu 04:01:55 PM 34.8392 -120.4347 328° Northwest 219 252 18,500 919 Climbing Los Angeles Center
Thu 04:02:57 PM 34.8847 -120.4700 328° Northwest 220 253 19,500 1,016 Climbing Los Angeles Center
Thu 04:03:59 PM 34.9450 -120.5189 326° Northwest 219 252 20,600 919 Climbing Los Angeles Center
Thu 04:05:01 PM 34.9986 -120.5608 327° Northwest 226 260 21,400 677 Climbing Los Angeles Center
Thu 04:06:03 PM 35.0525 -120.6022 328° Northwest 230 265 22,000 290 Climbing Los Angeles Center
Thu 04:07:05 PM 35.1125 -120.6489 328° Northwest 253 291 22,000  Level Los Angeles Center
Thu 04:08:07 PM 35.1758 -120.6994 327° Northwest 271 312 22,000  Level Los Angeles Center
Thu 04:09:21 PM 35.2372 -120.7506 326° Northwest 268 308 22,000  Level Los Angeles Center
Thu 04:10:23 PM 35.3211 -120.8242 324° Northwest 263 303 22,000  Level Los Angeles Center
Thu 04:11:25 PM 35.3783 -120.8800 322° Northwest 263 303 22,000  Level Los Angeles Center
Thu 04:11:56 PM 35.3992 -120.9000 322° Northwest 262 302 22,000  Level Oakland Center
Thu 04:12:57 PM 35.4681 -120.9661 322° Northwest 262 302 22,000  Level Oakland Center
Thu 04:13:59 PM 35.5253 -121.0200 323° Northwest 260 299 22,000  Level Oakland Center
Thu 04:15:00 PM 35.5831 -121.0750 322° Northwest 261 300 22,000  Level Oakland Center
Thu 04:16:01 PM 35.6408 -121.1294 323° Northwest 262 302 22,000  Level Oakland Center
Thu 04:17:03 PM 35.6983 -121.1839 322° Northwest 262 302 22,000  Level Oakland Center
Thu 04:18:04 PM 35.7550 -121.2383 322° Northwest 261 300 22,000  Level Oakland Center
Thu 04:19:05 PM 35.8125 -121.2925 323° Northwest 261 300 22,000  Level Oakland Center
Thu 04:20:07 PM 35.8700 -121.3467 323° Northwest 261 300 22,000  Level Oakland Center
Thu 04:21:08 PM 35.9272 -121.4008 323° Northwest 261 300 22,000  Level Oakland Center
Thu 04:22:10 PM 35.9947 -121.4681 321° Northwest 260 299 22,000  Level Oakland Center
Thu 04:23:11 PM 36.0531 -121.5228 323° Northwest 268 308 22,000  Level Oakland Center
Thu 04:24:12 PM 36.1094 -121.5772 322° Northwest 259 298 22,000  Level Oakland Center
Thu 04:25:14 PM 36.1658 -121.6333 321° Northwest 262 302 22,000  Level Oakland Center
Thu 04:26:15 PM 36.2306 -121.6733 334° Northwest 259 298 22,000 -49 Level Oakland Center
Thu 04:27:16 PM 36.3014 -121.7069 339° North 272 313 21,900 -537 Descending Oakland Center
Thu 04:28:18 PM 36.3728 -121.7436 338° Northwest 286 329 20,900 -1,282 Descending Oakland Center
Thu 04:29:13 PM 36.4333 -121.7833 332° Northwest 256 295 19,400 -1,617 Descending Northern Cal TRACON
Thu 04:30:13 PM 36.5000 -121.8167 338° Northwest 252 290 17,800 -1,600 Descending Northern Cal TRACON
Thu 04:31:13 PM 36.5667 -121.8500 338° Northwest 285 328 16,200 -1,600 Descending Northern Cal TRACON
Thu 04:32:13 PM 36.6500 -121.8833 342° North 303 349 14,600 -1,650 Descending Northern Cal TRACON
Thu 04:33:13 PM 36.7333 -121.9333 334° Northwest 308 354 12,900 -1,650 Descending Northern Cal TRACON
Thu 04:34:13 PM 36.8167 -121.9667 342° North 311 358 11,300 -1,600 Descending Northern Cal TRACON
Thu 04:35:13 PM 36.9000 -122.0167 334° Northwest 305 351 9,700 -1,450 Descending Northern Cal TRACON
Thu 04:36:13 PM 36.9667 -122.0500 338° Northwest 285 328 8,400 -1,200 Descending Northern Cal TRACON
Thu 04:36:28 PM 36.9786 -122.0611 323° Northwest 292 336 8,200 -312 Descending Oakland Center
Thu 04:37:30 PM 37.0447 -122.1011 334° Northwest 271 312 8,000 -98 Descending Oakland Center
Thu 04:38:31 PM 37.1125 -122.1225 346° North 253 291 8,000  Level Oakland Center
Thu 04:39:32 PM 37.1792 -122.1378 350° North 246 283 8,000 -464 Level Oakland Center
Thu 04:41:00 PM 37.2703 -122.2131 336° Northwest  Level FlightAware Approximate
Thu 04:44:20 PM 37.5000 -122.1833 North 193 222 5,300  Level Northern Cal TRACON
Thu 04:44:39 PM 37.5119 -122.1881 343° North 199 229 5,000 -947 Descending Oakland Center
Thu 04:48:00 PM 37.6167 -122.3667 North  Level FlightAware Approximate
Thu 04:49:00 PM 37.6191 -122.3752 North  Level Estimated

Login

Don't have an account? Register now (free) for customized features, flight alerts, and more!